In Rescue
 
Open Full Screen Window  High Contrast Mode
Wind Gusting 00 knots
09
April 19, 2021 9:21 PM EDT
Weather Information
Wind Direction
  280 °
Wind Speed
  09 kt (10 mph)
Wind Gust
  00 kt (0 mph)
Altimeter
29.80 in
Visibility
10 SM
Temperature
05° C
41° F
Dewpoint
-02° C
28° F
Humidity
61%
Sky Condition
Overcast @ 5,000 ft
VFR

METAR KBAX 200121Z AUTO 28009KT 10SM OVC050 05/M02 A2980 RMK AO2 T00491024

FAA Disclaimer: The data displayed is for advisory purposes only and is not to be used for flight planning or operations.